sensor_id;sensor_type;location;lat;lon;timestamp;P1;durP1;ratioP1;P2;durP2;ratioP2
11703;SDS011;5908;51.354;7.458;2023-11-21T00:00:00;95.10;;;87.30;;
11703;SDS011;5908;51.354;7.458;2023-11-21T00:02:28;121.00;;;111.20;;
11703;SDS011;5908;51.354;7.458;2023-11-21T00:04:55;120.97;;;111.75;;
11703;SDS011;5908;51.354;7.458;2023-11-21T00:07:22;126.30;;;115.97;;
11703;SDS011;5908;51.354;7.458;2023-11-21T00:09:49;81.38;;;74.78;;
11703;SDS011;5908;51.354;7.458;2023-11-21T00:12:16;73.28;;;67.03;;
11703;SDS011;5908;51.354;7.458;2023-11-21T00:14:43;75.78;;;69.55;;
11703;SDS011;5908;51.354;7.458;2023-11-21T00:17:09;84.82;;;77.95;;
11703;SDS011;5908;51.354;7.458;2023-11-21T00:19:38;95.75;;;87.90;;
11703;SDS011;5908;51.354;7.458;2023-11-21T00:22:04;88.18;;;81.15;;
11703;SDS011;5908;51.354;7.458;2023-11-21T00:24:32;92.00;;;84.60;;
11703;SDS011;5908;51.354;7.458;2023-11-21T00:26:58;62.38;;;56.78;;
11703;SDS011;5908;51.354;7.458;2023-11-21T00:29:25;56.17;;;51.47;;
11703;SDS011;5908;51.354;7.458;2023-11-21T00:31:52;46.58;;;41.70;;
11703;SDS011;5908;51.354;7.458;2023-11-21T00:34:19;37.85;;;33.90;;
11703;SDS011;5908;51.354;7.458;2023-11-21T00:36:47;23.65;;;18.48;;
11703;SDS011;5908;51.354;7.458;2023-11-21T00:39:14;21.80;;;15.13;;
11703;SDS011;5908;51.354;7.458;2023-11-21T00:41:41;21.25;;;13.77;;
11703;SDS011;5908;51.354;7.458;2023-11-21T00:44:09;21.03;;;13.57;;
11703;SDS011;5908;51.354;7.458;2023-11-21T00:46:36;26.58;;;15.60;;
11703;SDS011;5908;51.354;7.458;2023-11-21T00:49:03;21.48;;;14.00;;
11703;SDS011;5908;51.354;7.458;2023-11-21T00:51:30;23.15;;;14.50;;
11703;SDS011;5908;51.354;7.458;2023-11-21T00:53:58;23.65;;;12.77;;
11703;SDS011;5908;51.354;7.458;2023-11-21T00:56:25;22.23;;;12.60;;
11703;SDS011;5908;51.354;7.458;2023-11-21T00:58:52;22.45;;;11.82;;
11703;SDS011;5908;51.354;7.458;2023-11-21T01:01:19;19.58;;;11.70;;
11703;SDS011;5908;51.354;7.458;2023-11-21T01:03:47;21.23;;;13.23;;
11703;SDS011;5908;51.354;7.458;2023-11-21T01:06:14;20.17;;;13.05;;
11703;SDS011;5908;51.354;7.458;2023-11-21T01:08:41;23.17;;;12.77;;
11703;SDS011;5908;51.354;7.458;2023-11-21T01:11:09;28.75;;;16.95;;
11703;SDS011;5908;51.354;7.458;2023-11-21T01:13:37;22.30;;;13.57;;
11703;SDS011;5908;51.354;7.458;2023-11-21T01:16:04;21.38;;;11.73;;
11703;SDS011;5908;51.354;7.458;2023-11-21T01:18:32;17.90;;;11.10;;
11703;SDS011;5908;51.354;7.458;2023-11-21T01:21:00;23.63;;;13.18;;
11703;SDS011;5908;51.354;7.458;2023-11-21T01:23:26;18.65;;;11.63;;
11703;SDS011;5908;51.354;7.458;2023-11-21T01:25:55;18.70;;;11.73;;
11703;SDS011;5908;51.354;7.458;2023-11-21T01:28:24;18.17;;;15.05;;
11703;SDS011;5908;51.354;7.458;2023-11-21T01:30:51;24.38;;;18.70;;
11703;SDS011;5908;51.354;7.458;2023-11-21T01:33:21;34.22;;;30.83;;
11703;SDS011;5908;51.354;7.458;2023-11-21T01:35:49;61.15;;;54.28;;
11703;SDS011;5908;51.354;7.458;2023-11-21T01:38:18;41.33;;;37.28;;
11703;SDS011;5908;51.354;7.458;2023-11-21T01:40:44;34.97;;;31.50;;
11703;SDS011;5908;51.354;7.458;2023-11-21T01:43:11;28.30;;;22.80;;
11703;SDS011;5908;51.354;7.458;2023-11-21T01:45:39;30.15;;;22.60;;
11703;SDS011;5908;51.354;7.458;2023-11-21T01:48:06;22.67;;;15.05;;
11703;SDS011;5908;51.354;7.458;2023-11-21T01:50:34;19.42;;;14.57;;
11703;SDS011;5908;51.354;7.458;2023-11-21T01:53:01;25.13;;;21.52;;
11703;SDS011;5908;51.354;7.458;2023-11-21T01:55:28;19.63;;;14.02;;
11703;SDS011;5908;51.354;7.458;2023-11-21T01:57:56;19.70;;;12.20;;
11703;SDS011;5908;51.354;7.458;2023-11-21T02:00:23;19.77;;;11.60;;
11703;SDS011;5908;51.354;7.458;2023-11-21T02:02:52;21.33;;;13.15;;
11703;SDS011;5908;51.354;7.458;2023-11-21T02:05:19;20.67;;;11.50;;
11703;SDS011;5908;51.354;7.458;2023-11-21T02:07:46;22.65;;;13.52;;
11703;SDS011;5908;51.354;7.458;2023-11-21T02:10:13;17.75;;;11.18;;
11703;SDS011;5908;51.354;7.458;2023-11-21T02:12:41;19.45;;;10.90;;
11703;SDS011;5908;51.354;7.458;2023-11-21T02:15:08;16.10;;;10.50;;
11703;SDS011;5908;51.354;7.458;2023-11-21T02:17:40;17.52;;;10.65;;
11703;SDS011;5908;51.354;7.458;2023-11-21T02:20:10;18.48;;;11.80;;
11703;SDS011;5908;51.354;7.458;2023-11-21T02:22:40;17.90;;;10.95;;
11703;SDS011;5908;51.354;7.458;2023-11-21T02:25:09;20.42;;;13.18;;
11703;SDS011;5908;51.354;7.458;2023-11-21T02:27:36;19.98;;;17.45;;
11703;SDS011;5908;51.354;7.458;2023-11-21T02:30:03;21.17;;;15.32;;
11703;SDS011;5908;51.354;7.458;2023-11-21T02:32:32;21.57;;;12.60;;
11703;SDS011;5908;51.354;7.458;2023-11-21T02:34:59;16.70;;;12.00;;
11703;SDS011;5908;51.354;7.458;2023-11-21T02:37:27;20.13;;;11.88;;
11703;SDS011;5908;51.354;7.458;2023-11-21T02:39:54;29.63;;;26.38;;
11703;SDS011;5908;51.354;7.458;2023-11-21T02:42:22;25.05;;;20.83;;
11703;SDS011;5908;51.354;7.458;2023-11-21T02:44:49;19.15;;;12.35;;
11703;SDS011;5908;51.354;7.458;2023-11-21T02:47:16;17.98;;;11.73;;
11703;SDS011;5908;51.354;7.458;2023-11-21T02:49:42;20.50;;;11.05;;
11703;SDS011;5908;51.354;7.458;2023-11-21T02:52:09;17.67;;;11.48;;
11703;SDS011;5908;51.354;7.458;2023-11-21T02:54:36;19.57;;;11.97;;
11703;SDS011;5908;51.354;7.458;2023-11-21T02:57:03;18.02;;;12.10;;
11703;SDS011;5908;51.354;7.458;2023-11-21T02:59:32;18.55;;;12.52;;
11703;SDS011;5908;51.354;7.458;2023-11-21T03:01:59;19.13;;;12.40;;
11703;SDS011;5908;51.354;7.458;2023-11-21T03:04:25;29.27;;;26.48;;
11703;SDS011;5908;51.354;7.458;2023-11-21T03:06:52;18.48;;;12.23;;
11703;SDS011;5908;51.354;7.458;2023-11-21T03:09:19;17.77;;;12.05;;
11703;SDS011;5908;51.354;7.458;2023-11-21T03:11:46;19.40;;;11.93;;
11703;SDS011;5908;51.354;7.458;2023-11-21T03:14:12;21.33;;;13.35;;
11703;SDS011;5908;51.354;7.458;2023-11-21T03:16:41;16.60;;;10.43;;
11703;SDS011;5908;51.354;7.458;2023-11-21T03:19:10;17.58;;;11.80;;
11703;SDS011;5908;51.354;7.458;2023-11-21T03:21:37;18.73;;;11.10;;
11703;SDS011;5908;51.354;7.458;2023-11-21T03:24:04;20.77;;;11.88;;
11703;SDS011;5908;51.354;7.458;2023-11-21T03:26:32;20.02;;;11.85;;
11703;SDS011;5908;51.354;7.458;2023-11-21T03:28:59;24.90;;;15.32;;
11703;SDS011;5908;51.354;7.458;2023-11-21T03:31:25;19.70;;;11.60;;
11703;SDS011;5908;51.354;7.458;2023-11-21T03:33:54;21.65;;;12.32;;
11703;SDS011;5908;51.354;7.458;2023-11-21T03:36:20;18.40;;;11.65;;
11703;SDS011;5908;51.354;7.458;2023-11-21T03:38:47;18.77;;;12.35;;
11703;SDS011;5908;51.354;7.458;2023-11-21T03:41:14;18.83;;;11.57;;
11703;SDS011;5908;51.354;7.458;2023-11-21T03:43:41;15.48;;;10.43;;
11703;SDS011;5908;51.354;7.458;2023-11-21T03:46:08;18.05;;;10.60;;
11703;SDS011;5908;51.354;7.458;2023-11-21T03:48:35;18.73;;;11.95;;
11703;SDS011;5908;51.354;7.458;2023-11-21T03:51:03;18.38;;;10.85;;
11703;SDS011;5908;51.354;7.458;2023-11-21T03:53:30;16.92;;;10.25;;
11703;SDS011;5908;51.354;7.458;2023-11-21T03:55:57;17.42;;;10.73;;
11703;SDS011;5908;51.354;7.458;2023-11-21T03:58:24;19.05;;;10.07;;
11703;SDS011;5908;51.354;7.458;2023-11-21T04:00:51;19.83;;;11.07;;
11703;SDS011;5908;51.354;7.458;2023-11-21T04:03:17;19.58;;;11.07;;
11703;SDS011;5908;51.354;7.458;2023-11-21T04:05:45;23.50;;;13.75;;
11703;SDS011;5908;51.354;7.458;2023-11-21T04:08:13;34.92;;;21.40;;
11703;SDS011;5908;51.354;7.458;2023-11-21T04:10:40;19.17;;;11.20;;
11703;SDS011;5908;51.354;7.458;2023-11-21T04:13:07;20.30;;;11.93;;
11703;SDS011;5908;51.354;7.458;2023-11-21T04:15:33;19.97;;;12.17;;
11703;SDS011;5908;51.354;7.458;2023-11-21T04:18:00;19.83;;;11.02;;
11703;SDS011;5908;51.354;7.458;2023-11-21T04:20:27;20.67;;;12.27;;
11703;SDS011;5908;51.354;7.458;2023-11-21T04:22:54;24.45;;;13.00;;
11703;SDS011;5908;51.354;7.458;2023-11-21T04:25:22;23.33;;;13.00;;
11703;SDS011;5908;51.354;7.458;2023-11-21T04:27:49;18.63;;;11.35;;
11703;SDS011;5908;51.354;7.458;2023-11-21T04:30:16;18.55;;;11.23;;
11703;SDS011;5908;51.354;7.458;2023-11-21T04:32:43;20.20;;;11.27;;
11703;SDS011;5908;51.354;7.458;2023-11-21T04:35:09;16.98;;;10.20;;
11703;SDS011;5908;51.354;7.458;2023-11-21T04:37:36;23.35;;;11.32;;
11703;SDS011;5908;51.354;7.458;2023-11-21T04:40:03;22.15;;;11.35;;
11703;SDS011;5908;51.354;7.458;2023-11-21T04:42:34;19.02;;;11.05;;
11703;SDS011;5908;51.354;7.458;2023-11-21T04:45:02;17.80;;;11.40;;
11703;SDS011;5908;51.354;7.458;2023-11-21T04:47:32;20.55;;;12.45;;
11703;SDS011;5908;51.354;7.458;2023-11-21T04:49:59;19.02;;;11.48;;
11703;SDS011;5908;51.354;7.458;2023-11-21T04:52:26;17.10;;;10.82;;
11703;SDS011;5908;51.354;7.458;2023-11-21T04:54:52;20.60;;;12.20;;
11703;SDS011;5908;51.354;7.458;2023-11-21T04:57:20;22.00;;;12.10;;
11703;SDS011;5908;51.354;7.458;2023-11-21T04:59:48;18.30;;;11.57;;
11703;SDS011;5908;51.354;7.458;2023-11-21T05:02:15;27.65;;;16.00;;
11703;SDS011;5908;51.354;7.458;2023-11-21T05:04:44;27.33;;;15.90;;
11703;SDS011;5908;51.354;7.458;2023-11-21T05:07:11;25.35;;;15.43;;
11703;SDS011;5908;51.354;7.458;2023-11-21T05:09:40;21.98;;;12.20;;
11703;SDS011;5908;51.354;7.458;2023-11-21T05:12:09;23.48;;;13.32;;
11703;SDS011;5908;51.354;7.458;2023-11-21T05:14:36;21.65;;;12.77;;
11703;SDS011;5908;51.354;7.458;2023-11-21T05:17:05;21.25;;;12.00;;
11703;SDS011;5908;51.354;7.458;2023-11-21T05:19:32;21.42;;;12.50;;
11703;SDS011;5908;51.354;7.458;2023-11-21T05:21:59;23.05;;;14.38;;
11703;SDS011;5908;51.354;7.458;2023-11-21T05:24:26;24.92;;;14.00;;
11703;SDS011;5908;51.354;7.458;2023-11-21T05:26:53;24.10;;;15.20;;
11703;SDS011;5908;51.354;7.458;2023-11-21T05:29:21;23.48;;;14.23;;
11703;SDS011;5908;51.354;7.458;2023-11-21T05:31:47;20.73;;;12.30;;
11703;SDS011;5908;51.354;7.458;2023-11-21T05:34:15;33.08;;;19.02;;
11703;SDS011;5908;51.354;7.458;2023-11-21T05:36:43;25.30;;;12.95;;
11703;SDS011;5908;51.354;7.458;2023-11-21T05:39:10;20.85;;;13.43;;
11703;SDS011;5908;51.354;7.458;2023-11-21T05:41:37;22.67;;;12.23;;
11703;SDS011;5908;51.354;7.458;2023-11-21T05:44:04;19.85;;;12.27;;
11703;SDS011;5908;51.354;7.458;2023-11-21T05:46:31;21.88;;;11.60;;
11703;SDS011;5908;51.354;7.458;2023-11-21T05:48:58;22.35;;;12.00;;
11703;SDS011;5908;51.354;7.458;2023-11-21T05:51:26;20.45;;;11.88;;
11703;SDS011;5908;51.354;7.458;2023-11-21T05:53:53;23.70;;;12.98;;
11703;SDS011;5908;51.354;7.458;2023-11-21T05:56:20;19.98;;;11.55;;
11703;SDS011;5908;51.354;7.458;2023-11-21T05:58:46;21.27;;;12.77;;
11703;SDS011;5908;51.354;7.458;2023-11-21T06:01:13;25.15;;;13.20;;
11703;SDS011;5908;51.354;7.458;2023-11-21T06:03:40;20.73;;;11.82;;
11703;SDS011;5908;51.354;7.458;2023-11-21T06:06:08;21.40;;;11.88;;
11703;SDS011;5908;51.354;7.458;2023-11-21T06:08:35;22.75;;;11.93;;
11703;SDS011;5908;51.354;7.458;2023-11-21T06:11:02;21.38;;;11.77;;
11703;SDS011;5908;51.354;7.458;2023-11-21T06:13:29;24.65;;;11.80;;
11703;SDS011;5908;51.354;7.458;2023-11-21T06:15:55;18.63;;;11.17;;
11703;SDS011;5908;51.354;7.458;2023-11-21T06:18:22;19.55;;;11.27;;
11703;SDS011;5908;51.354;7.458;2023-11-21T06:20:49;21.25;;;11.38;;
11703;SDS011;5908;51.354;7.458;2023-11-21T06:23:18;30.52;;;18.13;;
11703;SDS011;5908;51.354;7.458;2023-11-21T06:25:46;22.30;;;13.45;;
11703;SDS011;5908;51.354;7.458;2023-11-21T06:28:13;20.47;;;13.00;;
11703;SDS011;5908;51.354;7.458;2023-11-21T06:30:42;22.95;;;12.85;;
11703;SDS011;5908;51.354;7.458;2023-11-21T06:33:10;28.88;;;17.40;;
11703;SDS011;5908;51.354;7.458;2023-11-21T06:35:37;31.30;;;17.40;;
11703;SDS011;5908;51.354;7.458;2023-11-21T06:38:05;28.40;;;15.40;;
11703;SDS011;5908;51.354;7.458;2023-11-21T06:40:32;27.25;;;15.35;;
11703;SDS011;5908;51.354;7.458;2023-11-21T06:43:00;25.58;;;14.18;;
11703;SDS011;5908;51.354;7.458;2023-11-21T06:45:27;31.13;;;17.40;;
11703;SDS011;5908;51.354;7.458;2023-11-21T06:47:54;28.10;;;16.13;;
11703;SDS011;5908;51.354;7.458;2023-11-21T06:50:21;25.97;;;14.50;;
11703;SDS011;5908;51.354;7.458;2023-11-21T06:52:48;28.30;;;14.50;;
11703;SDS011;5908;51.354;7.458;2023-11-21T06:55:14;28.23;;;16.88;;
11703;SDS011;5908;51.354;7.458;2023-11-21T06:57:42;25.55;;;13.70;;
11703;SDS011;5908;51.354;7.458;2023-11-21T07:00:11;23.67;;;14.00;;
11703;SDS011;5908;51.354;7.458;2023-11-21T07:02:39;22.40;;;12.83;;
11703;SDS011;5908;51.354;7.458;2023-11-21T07:05:06;26.52;;;14.43;;
11703;SDS011;5908;51.354;7.458;2023-11-21T07:07:33;25.10;;;14.40;;
11703;SDS011;5908;51.354;7.458;2023-11-21T07:10:02;26.63;;;15.43;;
11703;SDS011;5908;51.354;7.458;2023-11-21T07:12:29;23.13;;;12.55;;
11703;SDS011;5908;51.354;7.458;2023-11-21T07:14:56;22.73;;;13.68;;
11703;SDS011;5908;51.354;7.458;2023-11-21T07:17:24;31.27;;;16.98;;
11703;SDS011;5908;51.354;7.458;2023-11-21T07:19:51;23.10;;;13.43;;
11703;SDS011;5908;51.354;7.458;2023-11-21T07:22:18;23.70;;;13.75;;
11703;SDS011;5908;51.354;7.458;2023-11-21T07:24:47;28.38;;;14.95;;
11703;SDS011;5908;51.354;7.458;2023-11-21T07:27:14;31.67;;;15.63;;
11703;SDS011;5908;51.354;7.458;2023-11-21T07:29:41;28.05;;;15.43;;
11703;SDS011;5908;51.354;7.458;2023-11-21T07:32:08;29.88;;;14.95;;
11703;SDS011;5908;51.354;7.458;2023-11-21T07:34:36;24.85;;;13.57;;
11703;SDS011;5908;51.354;7.458;2023-11-21T07:37:03;27.15;;;14.75;;
11703;SDS011;5908;51.354;7.458;2023-11-21T07:39:30;29.02;;;14.63;;
11703;SDS011;5908;51.354;7.458;2023-11-21T07:41:57;25.23;;;13.67;;
11703;SDS011;5908;51.354;7.458;2023-11-21T07:44:23;25.58;;;13.85;;
11703;SDS011;5908;51.354;7.458;2023-11-21T07:46:51;24.60;;;13.57;;
11703;SDS011;5908;51.354;7.458;2023-11-21T07:49:22;22.63;;;12.40;;
11703;SDS011;5908;51.354;7.458;2023-11-21T07:51:50;25.25;;;13.70;;
11703;SDS011;5908;51.354;7.458;2023-11-21T07:54:17;25.23;;;13.77;;
11703;SDS011;5908;51.354;7.458;2023-11-21T07:56:44;23.95;;;12.57;;
11703;SDS011;5908;51.354;7.458;2023-11-21T07:59:11;29.48;;;15.93;;
11703;SDS011;5908;51.354;7.458;2023-11-21T08:01:39;28.48;;;15.30;;
11703;SDS011;5908;51.354;7.458;2023-11-21T08:04:08;25.45;;;15.07;;
11703;SDS011;5908;51.354;7.458;2023-11-21T08:06:35;22.73;;;14.40;;
11703;SDS011;5908;51.354;7.458;2023-11-21T08:09:03;25.37;;;14.10;;
11703;SDS011;5908;51.354;7.458;2023-11-21T08:11:30;30.63;;;17.63;;
11703;SDS011;5908;51.354;7.458;2023-11-21T08:13:58;39.22;;;21.38;;
11703;SDS011;5908;51.354;7.458;2023-11-21T08:16:25;39.22;;;22.80;;
11703;SDS011;5908;51.354;7.458;2023-11-21T08:18:52;29.67;;;16.42;;
11703;SDS011;5908;51.354;7.458;2023-11-21T08:21:19;33.28;;;18.80;;
11703;SDS011;5908;51.354;7.458;2023-11-21T08:23:46;47.13;;;28.38;;
11703;SDS011;5908;51.354;7.458;2023-11-21T08:26:20;47.20;;;24.83;;
11703;SDS011;5908;51.354;7.458;2023-11-21T08:28:47;43.95;;;25.73;;
11703;SDS011;5908;51.354;7.458;2023-11-21T08:31:13;31.85;;;19.23;;
11703;SDS011;5908;51.354;7.458;2023-11-21T08:33:40;30.27;;;17.88;;
11703;SDS011;5908;51.354;7.458;2023-11-21T08:36:08;35.72;;;21.08;;
11703;SDS011;5908;51.354;7.458;2023-11-21T08:38:36;27.17;;;15.90;;
11703;SDS011;5908;51.354;7.458;2023-11-21T08:41:03;29.23;;;15.55;;
11703;SDS011;5908;51.354;7.458;2023-11-21T08:43:34;44.63;;;20.42;;
11703;SDS011;5908;51.354;7.458;2023-11-21T08:46:04;32.42;;;16.15;;
11703;SDS011;5908;51.354;7.458;2023-11-21T08:48:31;40.60;;;18.90;;
11703;SDS011;5908;51.354;7.458;2023-11-21T08:50:58;36.80;;;18.50;;
11703;SDS011;5908;51.354;7.458;2023-11-21T08:53:25;30.60;;;16.15;;
11703;SDS011;5908;51.354;7.458;2023-11-21T08:55:52;30.35;;;16.85;;
11703;SDS011;5908;51.354;7.458;2023-11-21T08:58:19;27.13;;;15.65;;
11703;SDS011;5908;51.354;7.458;2023-11-21T09:00:47;26.38;;;15.73;;
11703;SDS011;5908;51.354;7.458;2023-11-21T09:03:14;37.63;;;21.60;;
11703;SDS011;5908;51.354;7.458;2023-11-21T09:05:41;28.13;;;16.00;;
11703;SDS011;5908;51.354;7.458;2023-11-21T09:08:08;33.80;;;19.40;;
11703;SDS011;5908;51.354;7.458;2023-11-21T09:10:34;36.60;;;19.58;;
11703;SDS011;5908;51.354;7.458;2023-11-21T09:13:02;46.28;;;25.52;;
11703;SDS011;5908;51.354;7.458;2023-11-21T09:15:28;29.80;;;15.90;;
11703;SDS011;5908;51.354;7.458;2023-11-21T09:17:56;34.60;;;19.80;;
11703;SDS011;5908;51.354;7.458;2023-11-21T09:20:23;34.10;;;16.40;;
11703;SDS011;5908;51.354;7.458;2023-11-21T09:22:50;34.30;;;19.17;;
11703;SDS011;5908;51.354;7.458;2023-11-21T09:25:17;36.40;;;20.00;;
11703;SDS011;5908;51.354;7.458;2023-11-21T09:27:45;34.37;;;18.23;;
11703;SDS011;5908;51.354;7.458;2023-11-21T09:30:12;33.70;;;17.70;;
11703;SDS011;5908;51.354;7.458;2023-11-21T09:32:40;35.25;;;17.95;;
11703;SDS011;5908;51.354;7.458;2023-11-21T09:35:11;38.58;;;18.63;;
11703;SDS011;5908;51.354;7.458;2023-11-21T09:37:39;33.95;;;18.30;;
11703;SDS011;5908;51.354;7.458;2023-11-21T09:40:06;35.30;;;18.70;;
11703;SDS011;5908;51.354;7.458;2023-11-21T09:42:39;42.70;;;22.63;;
11703;SDS011;5908;51.354;7.458;2023-11-21T09:45:11;42.25;;;21.55;;
11703;SDS011;5908;51.354;7.458;2023-11-21T09:47:45;42.60;;;22.67;;
11703;SDS011;5908;51.354;7.458;2023-11-21T09:50:15;35.65;;;19.50;;
11703;SDS011;5908;51.354;7.458;2023-11-21T09:52:45;53.97;;;31.83;;
11703;SDS011;5908;51.354;7.458;2023-11-21T09:55:18;35.13;;;18.45;;
11703;SDS011;5908;51.354;7.458;2023-11-21T09:57:47;40.72;;;20.15;;
11703;SDS011;5908;51.354;7.458;2023-11-21T10:00:15;36.25;;;18.20;;
11703;SDS011;5908;51.354;7.458;2023-11-21T10:02:45;34.20;;;18.20;;
11703;SDS011;5908;51.354;7.458;2023-11-21T10:05:15;71.90;;;40.50;;
11703;SDS011;5908;51.354;7.458;2023-11-21T10:07:43;59.90;;;32.03;;
11703;SDS011;5908;51.354;7.458;2023-11-21T10:10:11;39.22;;;19.90;;
11703;SDS011;5908;51.354;7.458;2023-11-21T10:12:42;45.55;;;23.40;;
11703;SDS011;5908;51.354;7.458;2023-11-21T10:15:11;64.30;;;37.88;;
11703;SDS011;5908;51.354;7.458;2023-11-21T10:17:41;71.13;;;42.75;;
11703;SDS011;5908;51.354;7.458;2023-11-21T10:20:10;39.55;;;20.65;;
11703;SDS011;5908;51.354;7.458;2023-11-21T10:22:39;45.33;;;22.45;;
11703;SDS011;5908;51.354;7.458;2023-11-21T10:25:07;46.45;;;22.77;;
11703;SDS011;5908;51.354;7.458;2023-11-21T10:27:34;45.85;;;22.20;;
11703;SDS011;5908;51.354;7.458;2023-11-21T10:30:01;42.33;;;20.35;;
11703;SDS011;5908;51.354;7.458;2023-11-21T10:32:29;44.28;;;20.98;;
11703;SDS011;5908;51.354;7.458;2023-11-21T10:34:57;42.58;;;22.05;;
11703;SDS011;5908;51.354;7.458;2023-11-21T10:37:27;44.03;;;23.00;;
11703;SDS011;5908;51.354;7.458;2023-11-21T10:39:58;51.72;;;25.67;;
11703;SDS011;5908;51.354;7.458;2023-11-21T10:42:25;41.15;;;20.88;;
11703;SDS011;5908;51.354;7.458;2023-11-21T10:44:52;48.33;;;24.15;;
11703;SDS011;5908;51.354;7.458;2023-11-21T10:47:19;39.88;;;19.70;;
11703;SDS011;5908;51.354;7.458;2023-11-21T10:49:48;41.70;;;21.02;;
11703;SDS011;5908;51.354;7.458;2023-11-21T10:52:14;41.30;;;21.30;;
11703;SDS011;5908;51.354;7.458;2023-11-21T10:54:42;44.85;;;21.00;;
11703;SDS011;5908;51.354;7.458;2023-11-21T10:57:11;41.78;;;20.23;;
11703;SDS011;5908;51.354;7.458;2023-11-21T10:59:43;41.47;;;21.35;;
11703;SDS011;5908;51.354;7.458;2023-11-21T11:02:24;34.63;;;17.98;;
11703;SDS011;5908;51.354;7.458;2023-11-21T11:04:53;42.42;;;19.20;;
11703;SDS011;5908;51.354;7.458;2023-11-21T11:07:20;31.67;;;15.53;;
11703;SDS011;5908;51.354;7.458;2023-11-21T11:09:52;34.47;;;16.23;;
11703;SDS011;5908;51.354;7.458;2023-11-21T11:12:21;31.05;;;14.95;;
11703;SDS011;5908;51.354;7.458;2023-11-21T11:14:48;32.10;;;15.52;;
11703;SDS011;5908;51.354;7.458;2023-11-21T11:17:15;32.63;;;16.02;;
11703;SDS011;5908;51.354;7.458;2023-11-21T11:19:45;34.40;;;16.58;;
11703;SDS011;5908;51.354;7.458;2023-11-21T11:22:16;34.17;;;16.77;;
11703;SDS011;5908;51.354;7.458;2023-11-21T11:25:04;30.45;;;16.20;;
11703;SDS011;5908;51.354;7.458;2023-11-21T11:27:44;31.50;;;16.30;;
11703;SDS011;5908;51.354;7.458;2023-11-21T11:30:21;33.47;;;15.70;;
11703;SDS011;5908;51.354;7.458;2023-11-21T11:33:04;32.67;;;17.25;;
11703;SDS011;5908;51.354;7.458;2023-11-21T11:35:38;34.90;;;18.75;;
11703;SDS011;5908;51.354;7.458;2023-11-21T11:38:23;40.80;;;19.83;;
11703;SDS011;5908;51.354;7.458;2023-11-21T11:40:53;33.75;;;17.05;;
11703;SDS011;5908;51.354;7.458;2023-11-21T11:43:28;36.42;;;18.13;;
11703;SDS011;5908;51.354;7.458;2023-11-21T11:45:55;34.60;;;18.02;;
11703;SDS011;5908;51.354;7.458;2023-11-21T11:48:24;34.70;;;18.23;;
11703;SDS011;5908;51.354;7.458;2023-11-21T11:51:03;34.47;;;18.50;;
11703;SDS011;5908;51.354;7.458;2023-11-21T11:53:37;34.97;;;17.95;;
11703;SDS011;5908;51.354;7.458;2023-11-21T11:56:22;33.58;;;17.70;;
11703;SDS011;5908;51.354;7.458;2023-11-21T11:58:52;38.30;;;19.58;;
11703;SDS011;5908;51.354;7.458;2023-11-21T12:01:21;37.20;;;20.37;;
11703;SDS011;5908;51.354;7.458;2023-11-21T12:06:56;40.80;;;20.10;;
11703;SDS011;5908;51.354;7.458;2023-11-21T12:09:25;43.15;;;25.40;;
11703;SDS011;5908;51.354;7.458;2023-11-21T12:11:52;41.22;;;21.05;;
11703;SDS011;5908;51.354;7.458;2023-11-21T12:14:23;40.25;;;20.98;;
11703;SDS011;5908;51.354;7.458;2023-11-21T12:16:50;47.22;;;21.30;;
11703;SDS011;5908;51.354;7.458;2023-11-21T12:19:17;44.05;;;21.88;;
11703;SDS011;5908;51.354;7.458;2023-11-21T12:21:45;50.22;;;22.70;;
11703;SDS011;5908;51.354;7.458;2023-11-21T12:24:13;51.55;;;29.25;;
11703;SDS011;5908;51.354;7.458;2023-11-21T12:26:43;58.78;;;37.53;;
11703;SDS011;5908;51.354;7.458;2023-11-21T12:29:10;57.28;;;29.08;;
11703;SDS011;5908;51.354;7.458;2023-11-21T12:31:39;49.30;;;21.93;;
11703;SDS011;5908;51.354;7.458;2023-11-21T12:34:06;45.47;;;24.80;;
11703;SDS011;5908;51.354;7.458;2023-11-21T12:36:36;43.85;;;19.88;;
11703;SDS011;5908;51.354;7.458;2023-11-21T12:39:03;41.58;;;19.67;;
11703;SDS011;5908;51.354;7.458;2023-11-21T12:41:30;33.08;;;17.17;;
11703;SDS011;5908;51.354;7.458;2023-11-21T12:43:57;84.55;;;76.57;;
11703;SDS011;5908;51.354;7.458;2023-11-21T12:46:24;50.70;;;40.03;;
11703;SDS011;5908;51.354;7.458;2023-11-21T12:48:55;51.83;;;41.30;;
11703;SDS011;5908;51.354;7.458;2023-11-21T12:51:23;42.60;;;24.58;;
11703;SDS011;5908;51.354;7.458;2023-11-21T12:53:49;39.58;;;25.38;;
11703;SDS011;5908;51.354;7.458;2023-11-21T12:56:17;41.55;;;33.78;;
11703;SDS011;5908;51.354;7.458;2023-11-21T12:58:48;48.10;;;38.53;;
11703;SDS011;5908;51.354;7.458;2023-11-21T13:01:16;60.72;;;54.22;;
11703;SDS011;5908;51.354;7.458;2023-11-21T13:03:45;47.78;;;39.17;;
11703;SDS011;5908;51.354;7.458;2023-11-21T13:06:17;48.05;;;37.15;;
11703;SDS011;5908;51.354;7.458;2023-11-21T13:08:44;66.28;;;59.15;;
11703;SDS011;5908;51.354;7.458;2023-11-21T13:11:11;104.10;;;93.65;;
11703;SDS011;5908;51.354;7.458;2023-11-21T13:13:40;101.72;;;92.00;;
11703;SDS011;5908;51.354;7.458;2023-11-21T13:16:07;78.80;;;70.50;;
11703;SDS011;5908;51.354;7.458;2023-11-21T13:18:35;71.88;;;63.85;;
11703;SDS011;5908;51.354;7.458;2023-11-21T13:21:02;73.78;;;64.93;;
11703;SDS011;5908;51.354;7.458;2023-11-21T13:23:37;95.97;;;86.38;;
11703;SDS011;5908;51.354;7.458;2023-11-21T13:26:06;77.80;;;68.75;;
11703;SDS011;5908;51.354;7.458;2023-11-21T13:28:34;108.47;;;97.38;;
11703;SDS011;5908;51.354;7.458;2023-11-21T13:31:02;88.18;;;78.47;;
11703;SDS011;5908;51.354;7.458;2023-11-21T13:33:34;90.05;;;80.65;;
11703;SDS011;5908;51.354;7.458;2023-11-21T13:36:03;75.50;;;65.47;;
11703;SDS011;5908;51.354;7.458;2023-11-21T13:38:33;95.88;;;84.18;;
11703;SDS011;5908;51.354;7.458;2023-11-21T13:41:02;77.88;;;68.97;;
11703;SDS011;5908;51.354;7.458;2023-11-21T13:43:32;76.82;;;68.70;;
11703;SDS011;5908;51.354;7.458;2023-11-21T13:45:59;42.45;;;24.25;;
11703;SDS011;5908;51.354;7.458;2023-11-21T13:48:33;36.90;;;22.02;;
11703;SDS011;5908;51.354;7.458;2023-11-21T13:51:07;37.90;;;24.38;;
11703;SDS011;5908;51.354;7.458;2023-11-21T13:53:40;35.38;;;23.33;;
11703;SDS011;5908;51.354;7.458;2023-11-21T13:56:09;38.97;;;23.80;;
11703;SDS011;5908;51.354;7.458;2023-11-21T13:58:37;35.55;;;20.88;;
11703;SDS011;5908;51.354;7.458;2023-11-21T14:01:11;34.20;;;19.75;;
11703;SDS011;5908;51.354;7.458;2023-11-21T14:03:57;30.20;;;17.80;;
11703;SDS011;5908;51.354;7.458;2023-11-21T14:06:33;28.52;;;16.45;;
11703;SDS011;5908;51.354;7.458;2023-11-21T14:09:07;30.20;;;17.13;;
11703;SDS011;5908;51.354;7.458;2023-11-21T14:11:35;26.98;;;16.88;;
11703;SDS011;5908;51.354;7.458;2023-11-21T14:14:03;26.70;;;15.67;;
11703;SDS011;5908;51.354;7.458;2023-11-21T14:16:30;28.08;;;16.05;;
11703;SDS011;5908;51.354;7.458;2023-11-21T14:18:57;26.58;;;15.40;;
11703;SDS011;5908;51.354;7.458;2023-11-21T14:21:40;27.52;;;16.42;;
11703;SDS011;5908;51.354;7.458;2023-11-21T14:24:08;25.40;;;13.80;;
11703;SDS011;5908;51.354;7.458;2023-11-21T14:26:39;24.83;;;13.45;;
11703;SDS011;5908;51.354;7.458;2023-11-21T14:29:07;22.48;;;12.82;;
11703;SDS011;5908;51.354;7.458;2023-11-21T14:31:36;24.70;;;14.10;;
11703;SDS011;5908;51.354;7.458;2023-11-21T14:34:03;26.17;;;14.07;;
11703;SDS011;5908;51.354;7.458;2023-11-21T14:36:31;25.75;;;14.90;;
11703;SDS011;5908;51.354;7.458;2023-11-21T14:38:58;38.90;;;29.35;;
11703;SDS011;5908;51.354;7.458;2023-11-21T14:41:25;33.70;;;17.60;;